Spring's Hourly Summary for Wednesday, May 9, 2018
Hour Temp
(f)
RH
(%)
Solar Rad.
(MJ/m2)
Rainfall
(in)
Wind
(mph)
5/9/2018 12:00 AM 75 49 0 0 3.26
5/9/2018 1:00 AM 72 56 0 0 1.78
5/9/2018 2:00 AM 69 64 0 0 0.39
5/9/2018 3:00 AM 68 73 0 0 1.34
5/9/2018 4:00 AM 66 81 0 0 0.15
5/9/2018 5:00 AM 64 90 0 0 0
5/9/2018 6:00 AM 63 94 0 0 0
5/9/2018 7:00 AM 64 95 0.02 0 0.3
5/9/2018 8:00 AM 66 81 0.42 0 0.03
5/9/2018 9:00 AM 72 77 1.15 0 2.24
5/9/2018 10:00 AM 76 57 1.8 0 5.51
5/9/2018 11:00 AM 79 44 1.81 0 6.21
5/9/2018 12:00 PM 82 38 3.12 0 6.38
5/9/2018 1:00 PM 85 27 3.49 0 6.59
5/9/2018 2:00 PM 86 26 3.62 0 7.89
5/9/2018 3:00 PM 87 26 3.4 0 6.85
5/9/2018 4:00 PM 87 27 2.81 0 6.5
5/9/2018 5:00 PM 88 26 2.42 0 6.79
5/9/2018 6:00 PM 87 26 1.84 0 7.72
5/9/2018 7:00 PM 86 26 1.03 0 8.3
5/9/2018 8:00 PM 83 34 0.3 0 8.73
5/9/2018 9:00 PM 80 39 0.01 0 6.11
5/9/2018 10:00 PM 77 47 0 0 5.39
5/9/2018 11:00 PM 75 56 0 0 3.87
Data Summary 76 52 27.24 0.00 4.26